Terminal Aerodrome Forecast
Issued by NWS Twin Cities, MN

Home | Current Version | Previous Version | Graphics & Text | Print | Product List | Glossary On
Versions: 1 2 3 4 5 6 7 8 9 10 11 12 13 14 15 16 17 18 19 20 21 22 23 24 25 26 27 28 29 30 31
000
FTUS43 KMPX 030520
TAFMSP
TAF
KMSP 030520Z 0306/0412 19009KT P6SM FEW090
     FM030900 16007KT P6SM VCSH SCT060 BKN090
     FM031500 22008KT P6SM SCT050 BKN080
     FM032100 31009KT P6SM -SHRA OVC045 PROB30 0321/0324 5SM TSRA
      OVC035CB
     FM040200 34012KT P6SM BKN050
     FM040700 35010KT P6SM SCT060=

USA.gov is the U.S. government's official web portal to all federal, state and local government web resources and services.